Time;durP1;ratioP1;P1;durP2;ratioP2;P2;SDS_P1;SDS_P2;PMS_P1;PMS_P2;Temp;Humidity;BMP_temperature;BMP_pressure;BME280_temperature;BME280_humidity;BME280_pressure;Samples;Min_cycle;Max_cycle;Signal;HPM_P1;HPM_P2
2021/04/17 00:02:05;;;;;;;3.47;2.00;;;5.80;99.60;;;;;;5063053;28;20020;-56
2021/04/17 00:04:31;;;;;;;2.70;2.33;;;5.80;99.60;;;;;;5062883;28;20453;-56
2021/04/17 00:06:58;;;;;;;4.05;2.70;;;5.90;99.50;;;;;;5064123;28;20081;-56
2021/04/17 00:09:26;;;;;;;3.58;2.72;;;5.80;99.70;;;;;;5064503;28;20029;-56
2021/04/17 00:11:59;;;;;;;6.30;3.33;;;5.70;99.80;;;;;;5064224;28;20422;-56
2021/04/17 00:14:30;;;;;;;4.35;2.70;;;5.70;99.80;;;;;;5064638;28;20028;-56
2021/04/17 00:16:56;;;;;;;2.83;2.35;;;5.70;99.90;;;;;;5065160;28;20394;-56
2021/04/17 00:19:23;;;;;;;3.08;2.05;;;5.60;99.90;;;;;;5061457;28;20031;-56
2021/04/17 00:21:49;;;;;;;3.50;2.25;;;5.60;99.90;;;;;;5086815;28;20056;-56
2021/04/17 00:24:15;;;;;;;4.78;2.25;;;5.60;99.90;;;;;;5064225;28;20067;-56
2021/04/17 00:26:41;;;;;;;3.38;2.70;;;5.50;99.90;;;;;;5064518;28;20027;-56
2021/04/17 00:29:07;;;;;;;3.83;2.65;;;5.30;99.90;;;;;;5064198;28;20032;-56
2021/04/17 00:31:34;;;;;;;2.22;1.80;;;5.30;99.90;;;;;;5063803;28;20032;-56
2021/04/17 00:34:01;;;;;;;5.38;3.30;;;5.30;99.90;;;;;;5064065;28;20430;-56
2021/04/17 00:36:27;;;;;;;3.60;2.63;;;5.30;99.90;;;;;;5064307;28;20052;-55
2021/04/17 00:38:53;;;;;;;3.45;2.58;;;5.20;99.90;;;;;;5064767;28;20028;-55
2021/04/17 00:41:19;;;;;;;3.92;2.60;;;5.20;99.90;;;;;;5063830;28;20150;-55
2021/04/17 00:43:45;;;;;;;5.10;2.80;;;5.20;99.90;;;;;;5064076;28;20021;-56
2021/04/17 00:46:12;;;;;;;3.65;2.47;;;5.20;99.90;;;;;;5064272;28;20059;-55
2021/04/17 00:48:42;;;;;;;2.92;2.33;;;5.20;99.90;;;;;;5062811;28;20045;-55
2021/04/17 00:51:09;;;;;;;4.18;2.33;;;5.20;99.90;;;;;;5063904;28;20029;-56
2021/04/17 00:53:36;;;;;;;4.80;2.65;;;5.20;99.90;;;;;;5064700;28;20095;-56
2021/04/17 00:56:07;;;;;;;3.20;2.55;;;5.20;99.90;;;;;;5064404;28;20020;-55
2021/04/17 00:58:34;;;;;;;4.47;2.97;;;5.20;99.90;;;;;;5064343;28;20111;-56
2021/04/17 01:01:01;;;;;;;2.88;2.40;;;5.20;99.90;;;;;;5064344;28;20032;-55
2021/04/17 01:03:48;;;;;;;3.42;2.38;;;5.20;99.90;;;;;;5064864;28;20029;-55
2021/04/17 01:06:27;;;;;;;3.35;2.33;;;5.10;99.90;;;;;;5063617;28;20074;-55
2021/04/17 01:09:14;;;;;;;3.80;3.03;;;5.10;99.90;;;;;;5065123;28;20055;-56
2021/04/17 01:12:02;;;;;;;3.55;2.80;;;5.00;99.90;;;;;;5061995;28;20039;-56
2021/04/17 01:14:31;;;;;;;3.58;2.65;;;4.90;99.90;;;;;;5063838;28;20021;-56
2021/04/17 01:17:00;;;;;;;2.38;2.17;;;5.00;99.90;;;;;;5063734;28;20017;-55
2021/04/17 01:19:48;;;;;;;4.32;2.80;;;5.10;99.90;;;;;;5066283;28;20558;-55
2021/04/17 01:22:20;;;;;;;3.83;2.60;;;5.00;99.90;;;;;;5056087;28;20453;-56
2021/04/17 01:25:01;;;;;;;3.22;2.55;;;5.00;99.90;;;;;;5067026;28;20533;-56
2021/04/17 01:27:27;;;;;;;5.00;2.58;;;4.90;99.90;;;;;;5066759;28;20027;-56
2021/04/17 01:29:54;;;;;;;2.60;2.22;;;5.00;99.90;;;;;;5068354;28;20035;-55
2021/04/17 01:32:20;;;;;;;3.40;2.17;;;4.90;99.90;;;;;;5067236;28;20103;-56
2021/04/17 01:34:47;;;;;;;4.45;2.30;;;4.90;99.90;;;;;;5067330;28;20443;-55
2021/04/17 01:37:14;;;;;;;3.28;2.30;;;4.80;99.90;;;;;;5067568;28;20028;-55
2021/04/17 01:39:41;;;;;;;4.90;2.33;;;4.70;99.90;;;;;;5067519;28;20438;-55
2021/04/17 01:42:09;;;;;;;5.63;3.75;;;4.90;99.90;;;;;;5067589;28;20059;-56
2021/04/17 01:44:40;;;;;;;2.42;2.20;;;4.90;99.90;;;;;;5067006;28;20043;-56
2021/04/17 01:47:10;;;;;;;2.58;2.35;;;4.80;99.90;;;;;;5067524;28;20035;-56
2021/04/17 01:49:39;;;;;;;3.55;2.85;;;4.70;99.90;;;;;;5066794;28;20090;-55
2021/04/17 01:52:07;;;;;;;3.10;2.40;;;4.70;99.90;;;;;;5066948;28;20039;-55
2021/04/17 01:54:47;;;;;;;3.22;2.15;;;4.80;99.90;;;;;;5067102;28;20025;-55
2021/04/17 01:57:19;;;;;;;4.22;2.28;;;4.80;99.90;;;;;;5066820;28;20035;-56
2021/04/17 01:59:45;;;;;;;2.28;1.83;;;4.90;99.90;;;;;;5067275;28;20021;-56
2021/04/17 02:02:10;;;;;;;3.20;2.33;;;4.80;99.90;;;;;;5067177;28;20062;-56
2021/04/17 02:04:36;;;;;;;3.17;2.15;;;4.90;99.90;;;;;;5066683;28;20056;-55
2021/04/17 02:07:03;;;;;;;2.75;2.10;;;4.90;99.90;;;;;;5067020;28;20182;-55
2021/04/17 02:09:29;;;;;;;2.75;2.15;;;4.90;99.90;;;;;;5066463;28;20074;-56
2021/04/17 02:11:55;;;;;;;4.13;2.40;;;5.00;99.90;;;;;;5066583;28;20071;-56
2021/04/17 02:14:20;;;;;;;3.03;2.30;;;5.00;99.90;;;;;;5066851;28;20048;-56
2021/04/17 02:17:03;;;;;;;4.25;2.30;;;5.00;99.90;;;;;;5066397;28;20021;-56
2021/04/17 02:20:00;;;;;;;3.00;2.35;;;4.90;99.90;;;;;;5066163;28;20045;-55
2021/04/17 02:22:27;;;;;;;3.15;2.40;;;5.00;99.90;;;;;;5067310;28;20032;-56
2021/04/17 02:24:55;;;;;;;3.85;2.72;;;4.90;99.90;;;;;;5066994;28;20055;-55
2021/04/17 02:27:21;;;;;;;4.18;3.17;;;4.90;99.90;;;;;;5065949;28;20020;-56
2021/04/17 02:29:54;;;;;;;7.53;3.78;;;4.70;99.90;;;;;;5065391;28;20039;-55
2021/04/17 02:32:20;;;;;;;4.75;2.92;;;4.50;99.90;;;;;;5065873;28;20028;-56
2021/04/17 02:34:47;;;;;;;7.00;3.90;;;4.60;99.90;;;;;;5066312;28;20392;-56
2021/04/17 02:37:13;;;;;;;9.32;4.00;;;4.70;99.90;;;;;;5066513;28;20028;-56
2021/04/17 02:39:41;;;;;;;7.85;4.20;;;4.60;99.90;;;;;;5066228;28;20024;-56
2021/04/17 02:42:07;;;;;;;9.75;4.97;;;4.50;99.90;;;;;;5066219;28;20406;-56
2021/04/17 02:44:33;;;;;;;12.43;5.95;;;4.50;99.90;;;;;;5066142;28;20402;-56
2021/04/17 02:46:59;;;;;;;13.25;6.45;;;4.50;99.90;;;;;;5066327;28;20036;-56
2021/04/17 02:49:25;;;;;;;14.15;7.07;;;4.40;99.90;;;;;;5066506;28;20503;-56
2021/04/17 02:51:51;;;;;;;16.23;8.18;;;4.40;99.90;;;;;;5066330;28;20035;-54
2021/04/17 02:54:17;;;;;;;20.60;9.07;;;4.40;99.90;;;;;;5066255;28;20040;-56
2021/04/17 02:56:43;;;;;;;20.67;9.18;;;4.50;99.90;;;;;;5065821;28;20032;-56
2021/04/17 02:59:10;;;;;;;13.82;6.38;;;4.20;99.90;;;;;;5066197;28;20490;-55
2021/04/17 03:01:36;;;;;;;15.10;6.72;;;4.20;99.90;;;;;;5065801;28;20037;-56
2021/04/17 03:04:03;;;;;;;15.27;6.00;;;4.30;99.90;;;;;;5065748;28;20021;-56
2021/04/17 03:06:28;;;;;;;9.63;5.25;;;4.40;99.90;;;;;;5065875;28;20032;-56
2021/04/17 03:08:54;;;;;;;11.50;4.97;;;4.40;99.90;;;;;;5066595;28;20032;-56
2021/04/17 03:11:21;;;;;;;6.85;4.03;;;4.40;99.90;;;;;;5065091;28;20458;-56
2021/04/17 03:13:46;;;;;;;6.20;4.03;;;4.30;99.90;;;;;;5065995;28;20032;-56
2021/04/17 03:16:12;;;;;;;7.72;4.05;;;4.10;99.90;;;;;;5065425;28;20199;-56
2021/04/17 03:18:39;;;;;;;6.10;4.03;;;4.10;99.90;;;;;;5065297;28;20020;-56
2021/04/17 03:21:05;;;;;;;8.55;3.72;;;4.10;99.90;;;;;;5065661;28;20028;-56
2021/04/17 03:23:30;;;;;;;11.45;5.15;;;4.20;99.90;;;;;;5065361;28;20089;-56
2021/04/17 03:25:56;;;;;;;8.75;4.40;;;4.30;99.90;;;;;;5066267;28;20047;-56
2021/04/17 03:28:23;;;;;;;16.88;6.85;;;4.40;99.90;;;;;;5065054;28;20462;-56
2021/04/17 03:30:48;;;;;;;18.45;7.75;;;4.30;99.90;;;;;;5065316;28;20296;-56
2021/04/17 03:33:14;;;;;;;13.90;5.18;;;4.30;99.90;;;;;;5065348;28;20395;-56
2021/04/17 03:35:40;;;;;;;12.77;4.70;;;4.30;99.90;;;;;;5065007;28;20033;-56
2021/04/17 03:38:05;;;;;;;11.80;4.78;;;4.20;99.90;;;;;;5065309;28;20351;-56
2021/04/17 03:40:32;;;;;;;12.93;5.40;;;4.20;99.90;;;;;;5064951;28;20459;-57
2021/04/17 03:42:58;;;;;;;11.93;5.18;;;4.20;99.90;;;;;;5065880;28;20557;-56
2021/04/17 03:45:24;;;;;;;14.70;6.55;;;4.30;99.90;;;;;;5065754;28;20453;-56
2021/04/17 03:47:52;;;;;;;21.30;8.80;;;4.20;99.90;;;;;;5065212;28;20028;-56
2021/04/17 03:50:19;;;;;;;28.27;10.48;;;4.00;99.90;;;;;;5065265;28;20508;-56
2021/04/17 03:52:45;;;;;;;18.90;8.15;;;4.00;99.90;;;;;;5065295;28;20032;-56
2021/04/17 03:55:14;;;;;;;11.55;5.60;;;4.00;99.90;;;;;;5065015;28;20029;-56
2021/04/17 03:57:41;;;;;;;10.07;4.72;;;3.90;99.90;;;;;;5065075;28;20024;-56
2021/04/17 04:00:09;;;;;;;7.13;4.07;;;4.00;99.90;;;;;;5065235;28;20141;-56
2021/04/17 04:02:37;;;;;;;4.97;3.45;;;4.10;99.90;;;;;;5064613;28;20027;-56
2021/04/17 04:05:04;;;;;;;5.15;3.40;;;4.00;99.90;;;;;;5065240;28;20028;-55
2021/04/17 04:07:30;;;;;;;5.72;3.70;;;4.00;99.90;;;;;;5064855;28;20016;-56
2021/04/17 04:09:55;;;;;;;5.68;3.30;;;4.00;99.90;;;;;;5065842;28;20032;-56
2021/04/17 04:12:21;;;;;;;3.60;3.17;;;3.90;99.90;;;;;;5063978;28;20028;-56
2021/04/17 04:14:47;;;;;;;5.90;3.72;;;3.90;99.90;;;;;;5064470;28;20486;-56
2021/04/17 04:17:13;;;;;;;4.40;3.38;;;3.80;99.90;;;;;;5064785;28;20483;-56
2021/04/17 04:19:39;;;;;;;4.25;3.17;;;3.80;99.90;;;;;;5064779;28;20029;-56
2021/04/17 04:22:05;;;;;;;4.25;3.13;;;3.90;99.90;;;;;;5065233;28;20029;-56
2021/04/17 04:24:30;;;;;;;7.03;3.28;;;3.90;99.90;;;;;;5064522;28;20069;-57
2021/04/17 04:26:56;;;;;;;3.65;2.90;;;3.90;99.90;;;;;;5065616;28;20112;-56
2021/04/17 04:29:22;;;;;;;3.47;2.83;;;3.80;99.90;;;;;;5064470;28;20449;-56
2021/04/17 04:31:48;;;;;;;3.20;2.70;;;3.80;99.90;;;;;;5064861;28;20029;-55
2021/04/17 04:34:14;;;;;;;4.43;2.80;;;3.80;99.90;;;;;;5065152;28;20395;-55
2021/04/17 04:36:40;;;;;;;3.20;2.50;;;3.80;99.90;;;;;;5064467;28;20024;-55
2021/04/17 04:39:07;;;;;;;3.63;3.10;;;3.70;99.90;;;;;;5064769;28;20028;-56
2021/04/17 04:41:35;;;;;;;4.63;3.20;;;3.70;99.90;;;;;;5064755;28;20033;-56
2021/04/17 04:44:03;;;;;;;4.20;3.22;;;3.70;99.90;;;;;;5064398;28;20494;-56
2021/04/17 04:46:30;;;;;;;4.47;3.22;;;3.70;99.90;;;;;;5064358;28;20020;-56
2021/04/17 04:48:56;;;;;;;3.85;2.83;;;3.80;99.90;;;;;;5067113;28;20414;-56
2021/04/17 04:51:21;;;;;;;5.40;3.22;;;3.80;99.90;;;;;;5067986;28;20028;-56
2021/04/17 04:53:47;;;;;;;5.03;3.33;;;3.70;99.90;;;;;;5068697;28;20642;-56
2021/04/17 04:56:14;;;;;;;3.63;2.90;;;3.70;99.90;;;;;;5068499;28;20025;-56
2021/04/17 04:58:40;;;;;;;4.45;2.85;;;3.70;99.90;;;;;;5068184;28;20072;-56
2021/04/17 05:01:07;;;;;;;3.38;2.53;;;3.70;99.90;;;;;;5068286;28;20553;-56
2021/04/17 05:03:34;;;;;;;3.25;2.72;;;3.70;99.90;;;;;;5067925;28;20037;-56
2021/04/17 05:06:00;;;;;;;4.00;3.38;;;3.60;99.90;;;;;;5068325;28;20043;-57
2021/04/17 05:08:26;;;;;;;3.60;2.92;;;3.60;99.90;;;;;;5068677;28;20039;-56
2021/04/17 05:10:52;;;;;;;5.18;3.03;;;3.60;99.90;;;;;;5068103;28;20021;-56
2021/04/17 05:13:17;;;;;;;4.43;3.17;;;3.60;99.90;;;;;;5068034;28;20032;-56
2021/04/17 05:15:43;;;;;;;5.90;3.30;;;3.60;99.90;;;;;;5067659;28;20020;-56
2021/04/17 05:18:10;;;;;;;5.60;3.63;;;3.60;99.90;;;;;;5068048;28;20036;-57
2021/04/17 05:20:36;;;;;;;4.78;3.75;;;3.50;99.90;;;;;;5067765;28;20398;-56
2021/04/17 05:23:02;;;;;;;4.25;3.10;;;3.60;99.90;;;;;;5067931;28;20115;-56
2021/04/17 05:25:29;;;;;;;6.30;3.10;;;3.60;99.90;;;;;;5067874;28;20104;-56
2021/04/17 05:27:54;;;;;;;3.60;2.85;;;3.50;99.90;;;;;;5068236;28;20032;-56
2021/04/17 05:30:20;;;;;;;4.22;3.08;;;3.60;99.90;;;;;;5067559;28;20025;-56
2021/04/17 05:32:46;;;;;;;4.18;3.13;;;3.60;99.90;;;;;;5067512;28;20094;-55
2021/04/17 05:35:12;;;;;;;4.13;3.05;;;3.60;99.90;;;;;;5066377;28;20495;-56
2021/04/17 05:37:37;;;;;;;3.83;3.00;;;3.60;99.90;;;;;;5068029;28;20032;-56
2021/04/17 05:40:04;;;;;;;7.35;4.50;;;3.60;99.90;;;;;;5067602;28;20078;-56
2021/04/17 05:42:30;;;;;;;10.70;5.50;;;3.60;99.90;;;;;;5067442;28;20028;-56
2021/04/17 05:44:56;;;;;;;17.45;6.25;;;3.50;99.90;;;;;;5068649;28;20047;-57
2021/04/17 05:47:21;;;;;;;14.70;6.90;;;3.70;99.90;;;;;;5067104;28;20450;-56
2021/04/17 05:49:47;;;;;;;14.90;6.97;;;3.70;99.90;;;;;;5067409;28;20549;-55
2021/04/17 05:52:13;;;;;;;27.73;12.13;;;3.70;99.90;;;;;;5067405;28;20032;-56
2021/04/17 05:54:38;;;;;;;21.88;10.63;;;3.70;99.90;;;;;;5067237;28;20024;-56
2021/04/17 05:57:04;;;;;;;29.25;11.57;;;3.80;99.90;;;;;;5067185;28;20044;-56
2021/04/17 05:59:31;;;;;;;28.35;10.75;;;3.80;99.90;;;;;;5066656;28;20016;-56
2021/04/17 06:01:57;;;;;;;27.85;11.60;;;3.80;99.90;;;;;;5065794;28;20078;-56
2021/04/17 06:04:22;;;;;;;21.63;9.07;;;3.70;99.90;;;;;;5068354;28;20040;-56
2021/04/17 06:06:48;;;;;;;28.13;10.77;;;3.90;99.90;;;;;;5068742;28;20044;-49
2021/04/17 06:09:14;;;;;;;25.90;10.32;;;3.90;99.90;;;;;;5068543;28;20051;-56
2021/04/17 06:11:41;;;;;;;25.13;10.80;;;3.90;99.90;;;;;;5067779;28;20032;-56
2021/04/17 06:14:06;;;;;;;22.42;10.15;;;3.90;99.90;;;;;;5068496;28;20521;-56
2021/04/17 06:16:32;;;;;;;35.95;14.25;;;4.00;99.90;;;;;;5065719;28;20024;-54
2021/04/17 06:18:58;;;;;;;21.33;10.45;;;4.10;99.90;;;;;;5067722;28;20052;-55
2021/04/17 06:21:24;;;;;;;20.73;8.95;;;4.10;99.90;;;;;;5068681;28;20102;-53
2021/04/17 06:23:49;;;;;;;19.77;9.10;;;4.10;99.90;;;;;;5068244;28;20471;-54
2021/04/17 06:26:15;;;;;;;14.02;6.90;;;4.20;99.90;;;;;;5066083;28;20032;-55
2021/04/17 06:28:40;;;;;;;12.65;6.15;;;4.40;99.90;;;;;;5068101;28;20426;-55
2021/04/17 06:31:06;;;;;;;8.18;5.13;;;4.50;99.90;;;;;;5067858;28;20089;-55
2021/04/17 06:33:32;;;;;;;10.57;5.85;;;4.40;99.90;;;;;;5066910;28;20020;-55
2021/04/17 06:35:58;;;;;;;7.47;5.07;;;4.10;99.90;;;;;;5067969;28;20025;-54
2021/04/17 06:38:24;;;;;;;7.47;4.57;;;4.10;99.90;;;;;;5065306;28;20128;-54
2021/04/17 06:40:51;;;;;;;6.97;4.55;;;4.10;99.90;;;;;;5047989;28;20037;-55
2021/04/17 06:43:21;;;;;;;5.63;3.90;;;3.90;99.90;;;;;;5048402;28;20039;-55
2021/04/17 06:45:47;;;;;;;7.28;4.30;;;4.10;99.90;;;;;;5066196;28;20035;-54
2021/04/17 06:48:16;;;;;;;5.22;3.72;;;4.30;99.90;;;;;;5067832;28;20464;-55
2021/04/17 06:50:43;;;;;;;6.30;4.25;;;4.20;99.90;;;;;;5066807;28;20025;-54
2021/04/17 06:53:10;;;;;;;5.72;3.95;;;4.30;99.90;;;;;;5077225;28;20503;-55
2021/04/17 06:55:36;;;;;;;7.22;3.78;;;4.40;99.90;;;;;;5066550;28;20024;-55
2021/04/17 06:58:03;;;;;;;5.25;3.63;;;4.60;99.90;;;;;;5067212;28;20112;-54
2021/04/17 07:00:29;;;;;;;4.03;3.00;;;4.50;99.90;;;;;;5066736;28;20078;-54
2021/04/17 07:02:55;;;;;;;4.80;3.20;;;4.50;99.90;;;;;;5068172;28;20234;-55
2021/04/17 07:05:21;;;;;;;5.75;4.30;;;4.70;99.90;;;;;;5060188;28;20033;-55
2021/04/17 07:07:46;;;;;;;6.38;3.83;;;5.00;99.90;;;;;;5061485;28;20379;-55
2021/04/17 07:10:14;;;;;;;6.40;4.32;;;5.10;99.90;;;;;;5067160;28;20507;-55
2021/04/17 07:12:44;;;;;;;6.90;4.75;;;4.90;99.90;;;;;;5066385;28;20462;-56
2021/04/17 07:15:11;;;;;;;6.18;3.90;;;4.90;99.90;;;;;;5058398;28;20591;-56
2021/04/17 07:17:37;;;;;;;5.32;3.17;;;5.10;99.90;;;;;;5065152;28;20103;-56
2021/04/17 07:20:13;;;;;;;5.97;3.67;;;5.10;99.90;;;;;;5065251;28;20108;-56
2021/04/17 07:22:40;;;;;;;5.15;3.90;;;4.90;99.90;;;;;;5066794;28;20510;-56
2021/04/17 07:25:06;;;;;;;5.32;3.78;;;4.90;99.90;;;;;;5067165;28;20025;-57
2021/04/17 07:27:39;;;;;;;6.78;4.22;;;5.00;99.90;;;;;;5060444;28;20074;-55
2021/04/17 07:30:17;;;;;;;7.97;4.53;;;4.90;99.90;;;;;;5055495;28;20036;-59
2021/04/17 07:32:46;;;;;;;5.15;3.70;;;5.10;99.90;;;;;;5058167;28;20032;-60
2021/04/17 07:35:20;;;;;;;6.22;3.95;;;5.20;99.90;;;;;;5063689;28;20501;-57
2021/04/17 07:37:48;;;;;;;7.88;5.00;;;5.10;99.90;;;;;;5064115;28;20573;-58
2021/04/17 07:40:14;;;;;;;8.25;4.70;;;5.10;99.90;;;;;;5062426;28;20163;-58
2021/04/17 07:42:41;;;;;;;8.63;5.13;;;5.20;99.90;;;;;;5052624;28;20068;-58
2021/04/17 07:45:21;;;;;;;7.13;4.45;;;5.20;99.90;;;;;;5063871;28;20062;-57
2021/04/17 07:47:47;;;;;;;6.38;4.18;;;5.30;99.90;;;;;;5066760;28;20056;-57
2021/04/17 07:50:13;;;;;;;4.03;3.10;;;5.20;99.90;;;;;;5066708;28;20560;-57
2021/04/17 07:52:39;;;;;;;5.00;3.75;;;5.50;99.90;;;;;;5066562;28;20479;-57
2021/04/17 07:55:10;;;;;;;4.07;3.47;;;5.50;99.90;;;;;;5066567;28;20029;-58
2021/04/17 07:57:39;;;;;;;6.75;4.70;;;5.40;99.90;;;;;;5066321;28;20091;-57
2021/04/17 08:00:10;;;;;;;5.82;4.13;;;5.10;99.90;;;;;;5066123;28;20025;-57
2021/04/17 08:02:38;;;;;;;3.97;3.35;;;5.30;99.90;;;;;;5066307;28;20033;-57
2021/04/17 08:05:05;;;;;;;3.90;3.20;;;5.60;99.90;;;;;;5066773;28;20437;-58
2021/04/17 08:07:33;;;;;;;4.25;2.83;;;5.60;99.90;;;;;;5065353;28;20050;-58
2021/04/17 08:10:00;;;;;;;3.45;2.92;;;5.70;99.90;;;;;;5063166;28;20025;-58
2021/04/17 08:12:26;;;;;;;3.65;2.72;;;5.70;99.90;;;;;;5065147;28;20583;-58
2021/04/17 08:14:52;;;;;;;3.10;2.78;;;5.70;99.90;;;;;;5064244;28;20021;-58
2021/04/17 08:17:22;;;;;;;3.28;2.53;;;5.80;99.90;;;;;;5063439;28;20074;-58
2021/04/17 08:19:47;;;;;;;4.68;3.15;;;5.90;99.90;;;;;;5064980;28;20454;-58
2021/04/17 08:22:15;;;;;;;3.50;2.97;;;5.80;99.90;;;;;;5064200;28;20040;-58
2021/04/17 08:24:42;;;;;;;4.30;3.35;;;6.00;99.90;;;;;;5064628;28;20103;-58
2021/04/17 08:27:08;;;;;;;4.95;3.55;;;6.00;99.90;;;;;;5063058;28;20032;-58
2021/04/17 08:29:43;;;;;;;4.15;3.17;;;5.70;99.90;;;;;;5066110;28;20024;-58
2021/04/17 08:32:38;;;;;;;3.67;2.70;;;5.90;99.90;;;;;;5065898;28;20028;-58
2021/04/17 08:35:20;;;;;;;3.63;2.78;;;6.10;99.90;;;;;;5046196;28;20104;-58
2021/04/17 08:40:32;;;;;;;2.42;1.85;;;6.60;99.90;;;;;;5064294;28;20035;-58
2021/04/17 08:42:59;;;;;;;2.97;2.33;;;6.80;99.90;;;;;;5046679;28;20056;-58
2021/04/17 08:45:25;;;;;;;4.25;2.85;;;6.60;99.90;;;;;;5046402;28;20052;-58
2021/04/17 08:47:54;;;;;;;2.97;2.30;;;6.50;99.90;;;;;;5044790;28;20029;-58
2021/04/17 08:50:37;;;;;;;3.30;2.60;;;6.80;99.90;;;;;;5044519;28;20017;-59
2021/04/17 08:53:17;;;;;;;2.75;2.28;;;6.70;99.90;;;;;;5044571;28;20021;-58
2021/04/17 08:55:50;;;;;;;2.72;2.42;;;6.90;99.90;;;;;;5044500;28;20033;-59
2021/04/17 08:58:22;;;;;;;2.87;2.40;;;6.90;99.90;;;;;;5044951;28;20446;-58
2021/04/17 09:00:50;;;;;;;3.38;2.40;;;7.00;99.90;;;;;;5044228;28;20037;-58
2021/04/17 09:03:40;;;;;;;2.95;2.40;;;7.10;99.90;;;;;;5044608;28;20032;-59
2021/04/17 09:06:10;;;;;;;3.08;2.42;;;7.20;99.90;;;;;;5044803;28;20055;-58
2021/04/17 09:08:38;;;;;;;4.75;3.10;;;7.20;99.90;;;;;;5044532;28;20032;-58
2021/04/17 09:11:37;;;;;;;5.07;3.83;;;7.10;99.90;;;;;;5044086;28;20044;-58
2021/04/17 09:14:33;;;;;;;6.10;3.72;;;6.90;99.90;;;;;;5044280;28;20020;-58
2021/04/17 09:17:06;;;;;;;4.80;3.30;;;7.20;99.90;;;;;;5043932;28;20033;-59
2021/04/17 09:19:38;;;;;;;5.87;3.83;;;7.40;99.90;;;;;;5044180;28;20418;-58
2021/04/17 09:22:24;;;;;;;6.57;4.32;;;7.20;99.90;;;;;;5044243;28;20321;-59
2021/04/17 09:25:07;;;;;;;6.18;4.47;;;7.10;99.90;;;;;;5044605;28;20033;-58
2021/04/17 09:27:35;;;;;;;9.43;6.00;;;7.00;99.90;;;;;;5043968;28;20033;-58
2021/04/17 09:30:18;;;;;;;7.88;5.03;;;6.80;99.90;;;;;;5044079;28;20233;-59
2021/04/17 09:32:49;;;;;;;10.30;5.45;;;7.00;99.90;;;;;;5043865;28;20570;-58
2021/04/17 09:35:29;;;;;;;12.70;6.97;;;6.90;99.90;;;;;;5046378;28;20021;-58
2021/04/17 09:38:00;;;;;;;8.38;5.70;;;7.00;99.90;;;;;;5048943;28;20115;-59
2021/04/17 09:40:53;;;;;;;9.20;5.25;;;7.20;99.90;;;;;;5048213;28;20025;-59
2021/04/17 09:43:31;;;;;;;5.57;3.85;;;7.40;99.90;;;;;;5047098;28;20503;-58
2021/04/17 09:46:02;;;;;;;4.07;2.97;;;7.60;99.90;;;;;;5048444;28;20053;-58
2021/04/17 09:48:38;;;;;;;4.07;3.30;;;7.50;99.90;;;;;;5047312;28;20064;-59
2021/04/17 09:51:04;;;;;;;7.40;5.22;;;7.40;99.90;;;;;;5047526;28;20083;-58
2021/04/17 09:53:34;;;;;;;7.43;4.97;;;7.20;99.90;;;;;;5047263;28;20048;-58
2021/04/17 09:56:07;;;;;;;10.95;6.57;;;7.40;99.90;;;;;;5047357;28;20487;-59
2021/04/17 09:58:34;;;;;;;13.57;7.38;;;7.30;99.90;;;;;;5047720;28;20096;-58
2021/04/17 10:01:14;;;;;;;8.48;5.20;;;7.30;99.90;;;;;;5047238;28;20021;-59
2021/04/17 10:03:42;;;;;;;8.80;5.03;;;7.50;99.90;;;;;;5046995;28;20494;-58
2021/04/17 10:06:36;;;;;;;9.60;5.60;;;7.60;99.90;;;;;;5047301;28;20029;-58
2021/04/17 10:09:07;;;;;;;10.00;6.20;;;7.70;99.90;;;;;;5047261;28;20039;-58
2021/04/17 10:11:34;;;;;;;11.13;7.38;;;7.80;99.90;;;;;;5046579;28;20021;-59
2021/04/17 10:14:01;;;;;;;11.52;7.07;;;7.60;99.90;;;;;;5047008;28;20074;-59
2021/04/17 10:16:36;;;;;;;11.95;6.30;;;7.50;99.90;;;;;;5046874;28;20106;-59
2021/04/17 10:19:07;;;;;;;11.85;6.82;;;8.00;99.90;;;;;;5046960;28;20025;-58
2021/04/17 10:21:35;;;;;;;8.75;5.35;;;7.90;99.90;;;;;;5059651;28;20090;-58
2021/04/17 10:24:17;;;;;;;7.68;4.95;;;8.20;99.90;;;;;;5066355;28;20029;-59
2021/04/17 10:26:54;;;;;;;9.63;6.25;;;8.50;99.90;;;;;;5066333;28;20029;-59
2021/04/17 10:29:32;;;;;;;10.70;6.97;;;8.20;99.90;;;;;;5066674;28;20406;-59
2021/04/17 10:32:05;;;;;;;10.38;6.20;;;8.40;99.90;;;;;;5066847;28;20093;-59
2021/04/17 10:34:32;;;;;;;6.63;5.32;;;8.10;99.90;;;;;;5067458;28;20368;-59
2021/04/17 10:37:00;;;;;;;7.50;5.13;;;8.30;99.90;;;;;;5065700;28;20420;-59
2021/04/17 10:39:26;;;;;;;7.53;4.85;;;8.60;99.90;;;;;;5070767;28;20037;-59
2021/04/17 10:42:00;;;;;;;7.50;5.70;;;8.60;99.90;;;;;;5059680;28;20070;-59
2021/04/17 10:44:26;;;;;;;10.35;5.82;;;8.60;99.90;;;;;;5058794;28;20105;-59
2021/04/17 10:46:53;;;;;;;7.95;6.07;;;8.80;99.90;;;;;;5066152;28;20502;-58
2021/04/17 10:49:44;;;;;;;7.40;4.82;;;8.80;99.90;;;;;;5067465;28;20676;-59
2021/04/17 10:52:29;;;;;;;7.18;5.00;;;8.80;99.90;;;;;;5064246;28;20043;-59
2021/04/17 10:54:55;;;;;;;7.38;5.50;;;9.00;99.90;;;;;;5068206;28;20048;-58
2021/04/17 10:57:22;;;;;;;8.80;6.15;;;8.90;99.90;;;;;;5067263;28;20028;-59
2021/04/17 10:59:59;;;;;;;17.38;10.40;;;8.80;99.90;;;;;;5070031;28;20039;-59
2021/04/17 11:02:33;;;;;;;13.70;7.57;;;8.80;99.90;;;;;;5067515;28;20453;-58
2021/04/17 11:05:00;;;;;;;13.27;9.38;;;8.80;99.90;;;;;;5067071;28;20079;-59
2021/04/17 11:07:33;;;;;;;10.82;7.93;;;8.70;99.90;;;;;;5067516;28;20548;-59
2021/04/17 11:10:01;;;;;;;8.33;5.73;;;8.90;99.90;;;;;;5065691;28;20514;-59
2021/04/17 11:12:34;;;;;;;5.57;4.32;;;9.50;99.90;;;;;;5067549;28;20032;-58
2021/04/17 11:15:25;;;;;;;9.75;7.07;;;9.80;99.90;;;;;;5062582;28;20039;-59
2021/04/17 11:18:14;;;;;;;6.13;5.20;;;9.60;99.90;;;;;;5057090;28;20089;-59
2021/04/17 11:20:49;;;;;;;6.25;4.65;;;9.80;99.90;;;;;;5052460;28;20076;-59
2021/04/17 11:23:37;;;;;;;9.23;6.43;;;10.10;99.90;;;;;;5066211;28;20024;-58
2021/04/17 11:26:05;;;;;;;9.13;6.50;;;10.00;99.90;;;;;;5066417;28;20408;-58
2021/04/17 11:28:31;;;;;;;7.13;5.68;;;10.00;99.90;;;;;;5066978;28;20086;-58
2021/04/17 11:30:57;;;;;;;6.18;5.07;;;10.10;99.30;;;;;;5057029;28;20033;-59
2021/04/17 11:33:24;;;;;;;6.47;5.38;;;10.30;99.90;;;;;;5061725;28;20529;-59
2021/04/17 11:35:50;;;;;;;5.57;4.20;;;10.40;99.60;;;;;;5067911;28;20082;-59
2021/04/17 11:38:16;;;;;;;7.38;5.55;;;10.70;99.40;;;;;;5060512;28;20024;-59
2021/04/17 11:40:43;;;;;;;4.65;4.15;;;10.80;98.60;;;;;;5066611;28;20119;-59
2021/04/17 11:43:08;;;;;;;5.18;4.05;;;10.80;98.70;;;;;;5056151;28;20033;-59
2021/04/17 11:45:34;;;;;;;5.72;4.57;;;11.10;98.30;;;;;;5061601;28;20042;-59
2021/04/17 11:48:04;;;;;;;5.80;4.82;;;11.10;99.00;;;;;;5066500;28;20035;-59
2021/04/17 11:50:30;;;;;;;5.35;4.53;;;11.30;98.00;;;;;;5066314;28;20063;-59
2021/04/17 11:52:56;;;;;;;7.68;6.35;;;11.50;97.70;;;;;;5056834;28;20519;-59
2021/04/17 11:55:23;;;;;;;8.77;6.95;;;11.10;97.10;;;;;;5066623;28;20028;-60
2021/04/17 11:57:49;;;;;;;6.95;5.28;;;11.00;98.00;;;;;;5066683;28;20032;-59
2021/04/17 12:00:15;;;;;;;4.28;3.67;;;11.30;98.10;;;;;;5065624;28;20024;-59
2021/04/17 12:02:40;;;;;;;5.80;3.85;;;12.00;98.70;;;;;;5065836;28;20390;-59
2021/04/17 12:05:07;;;;;;;5.78;4.57;;;12.10;97.30;;;;;;5065871;28;20032;-59
2021/04/17 12:07:32;;;;;;;4.25;3.53;;;11.80;97.50;;;;;;5067493;28;20037;-59
2021/04/17 12:09:58;;;;;;;3.42;2.92;;;12.20;97.80;;;;;;5067439;28;20608;-59
2021/04/17 12:12:24;;;;;;;4.13;3.60;;;12.40;96.90;;;;;;5059552;28;20029;-59
2021/04/17 12:14:50;;;;;;;6.90;4.70;;;12.30;96.90;;;;;;5059726;28;20029;-59
2021/04/17 12:17:16;;;;;;;4.38;3.97;;;12.20;97.20;;;;;;5073646;28;20608;-59
2021/04/17 12:19:42;;;;;;;3.90;3.28;;;12.50;96.50;;;;;;5066591;28;20107;-59
2021/04/17 12:22:08;;;;;;;3.92;3.13;;;12.90;96.10;;;;;;5057589;28;20163;-59
2021/04/17 12:24:34;;;;;;;4.10;3.65;;;12.80;95.30;;;;;;5065244;28;20071;-60
2021/04/17 12:26:59;;;;;;;5.15;3.85;;;12.70;96.20;;;;;;5067689;28;20025;-59
2021/04/17 12:29:25;;;;;;;3.53;3.20;;;13.00;95.80;;;;;;5067732;28;20134;-59
2021/04/17 12:31:51;;;;;;;5.47;4.45;;;13.00;95.70;;;;;;5066043;28;20158;-59
2021/04/17 12:34:16;;;;;;;5.82;4.18;;;12.90;95.60;;;;;;5058403;28;20356;-59
2021/04/17 12:36:42;;;;;;;6.32;5.05;;;13.20;95.60;;;;;;5059670;28;20380;-59
2021/04/17 12:39:08;;;;;;;4.60;4.13;;;12.90;95.10;;;;;;5065511;28;20495;-60
2021/04/17 12:41:34;;;;;;;5.57;4.22;;;13.20;94.90;;;;;;5063897;28;20534;-60
2021/04/17 12:44:00;;;;;;;4.70;4.00;;;13.30;94.90;;;;;;5057800;28;20035;-60
2021/04/17 12:46:27;;;;;;;8.63;6.57;;;13.10;94.90;;;;;;5058314;28;20025;-59
2021/04/17 12:48:52;;;;;;;6.10;5.00;;;13.00;94.30;;;;;;5058998;28;20024;-59
2021/04/17 12:51:18;;;;;;;4.85;3.65;;;13.20;95.40;;;;;;5061646;28;20036;-58
2021/04/17 12:53:44;;;;;;;3.72;2.92;;;13.50;94.60;;;;;;5063038;28;20020;-59
2021/04/17 12:56:10;;;;;;;4.40;3.40;;;13.70;94.60;;;;;;5065887;28;20059;-58
2021/04/17 12:58:39;;;;;;;4.05;3.45;;;13.50;93.80;;;;;;5066028;28;20565;-58
2021/04/17 13:01:06;;;;;;;6.18;4.18;;;13.80;94.10;;;;;;5066489;28;20040;-58
2021/04/17 13:03:32;;;;;;;4.65;3.92;;;13.80;94.20;;;;;;5066265;28;20045;-59
2021/04/17 13:05:58;;;;;;;7.47;5.22;;;13.90;93.90;;;;;;5066984;28;20024;-57